Time;durP1;ratioP1;P1;durP2;ratioP2;P2;SDS_P1;SDS_P2;PMS_P1;PMS_P2;Temp;Humidity;BMP_temperature;BMP_pressure;BME280_temperature;BME280_humidity;BME280_pressure;Samples;Min_cycle;Max_cycle;Signal;HPM_P1;HPM_P2
2022/02/17 00:00:33;;;;;;;100.53;46.93;;;;;;;1.52;100.00;142645.63;1700880;84;21052;-58
2022/02/17 00:03:00;;;;;;;102.00;45.70;;;;;;;1.52;100.00;142644.39;1700626;84;21016;-57
2022/02/17 00:05:28;;;;;;;90.55;44.30;;;;;;;1.57;100.00;142656.83;1700775;84;21025;-60
2022/02/17 00:07:56;;;;;;;87.90;41.30;;;;;;;1.57;100.00;142656.83;1700568;84;21518;-59
2022/02/17 00:10:26;;;;;;;88.07;42.58;;;;;;;1.60;100.00;142663.06;1700796;83;21071;-58
2022/02/17 00:12:57;;;;;;;91.82;43.28;;;;;;;1.60;100.00;142664.30;1700716;83;21071;-60
2022/02/17 00:15:30;;;;;;;88.72;41.37;;;;;;;1.61;100.00;142665.58;1700855;84;21458;-60
2022/02/17 00:18:00;;;;;;;79.97;37.98;;;;;;;1.66;100.00;142679.25;1700707;83;20997;-59
2022/02/17 00:20:27;;;;;;;88.60;44.10;;;;;;;1.67;100.00;142680.48;1700707;84;21048;-61
2022/02/17 00:22:54;;;;;;;86.17;41.77;;;;;;;1.60;100.00;142663.06;1700400;84;21055;-59
2022/02/17 00:25:21;;;;;;;85.45;42.75;;;;;;;1.56;100.00;142653.12;1700519;83;21036;-60
2022/02/17 00:27:48;;;;;;;82.65;38.28;;;;;;;1.59;100.00;142660.58;1700405;84;21036;-60
2022/02/17 00:30:16;;;;;;;81.17;42.45;;;;;;;1.61;100.00;142665.58;1700611;84;21036;-59
2022/02/17 00:32:43;;;;;;;87.15;45.03;;;;;;;1.66;100.00;142678.03;1700443;84;21044;-60
2022/02/17 00:35:10;;;;;;;89.97;45.50;;;;;;;1.72;100.00;142694.17;1700755;84;21016;-60
2022/02/17 00:37:39;;;;;;;85.53;43.73;;;;;;;1.79;100.00;142709.14;1700552;84;21040;-60
2022/02/17 00:40:07;;;;;;;79.55;41.30;;;;;;;1.82;100.00;142717.84;1700703;84;21068;-58
2022/02/17 00:42:35;;;;;;;83.40;41.92;;;;;;;1.86;100.00;142727.81;1700626;83;21030;-60
2022/02/17 00:45:03;;;;;;;75.90;38.95;;;;;;;1.94;100.00;142747.72;1700661;83;21005;-57
2022/02/17 00:47:30;;;;;;;83.45;44.48;;;;;;;2.02;100.00;142765.17;1700730;84;20973;-60
2022/02/17 00:49:57;;;;;;;79.97;39.85;;;;;;;2.02;100.00;142765.17;1700359;84;21063;-61
2022/02/17 00:52:26;;;;;;;82.42;42.67;;;;;;;2.04;100.00;142770.16;1700281;83;21052;-61
2022/02/17 00:54:53;;;;;;;83.80;42.50;;;;;;;2.05;100.00;142773.86;1700402;84;21056;-59
2022/02/17 00:57:20;;;;;;;86.02;43.83;;;;;;;2.06;100.00;142775.09;1700465;83;21514;-59
2022/02/17 00:59:48;;;;;;;83.20;42.65;;;;;;;2.05;100.00;142772.62;1700310;84;21076;-60
2022/02/17 01:02:14;;;;;;;86.20;43.30;;;;;;;2.03;100.00;142767.64;1700410;83;21040;-60
2022/02/17 01:04:41;;;;;;;78.00;41.63;;;;;;;2.01;100.00;142763.94;1700414;84;21060;-60
2022/02/17 01:07:08;;;;;;;77.55;36.28;;;;;;;2.00;100.00;142760.19;1700615;83;21029;-58
2022/02/17 01:09:37;;;;;;;78.55;41.37;;;;;;;2.03;100.00;142767.64;1700384;83;21052;-60
2022/02/17 01:12:05;;;;;;;77.87;40.90;;;;;;;2.05;100.00;142773.86;1700614;83;21565;-60
2022/02/17 01:14:33;;;;;;;78.35;41.23;;;;;;;2.07;100.00;142777.63;1700289;84;21163;-59
2022/02/17 01:17:01;;;;;;;86.45;43.35;;;;;;;2.07;100.00;142777.63;1700368;84;21056;-59
2022/02/17 01:19:30;;;;;;;77.03;40.33;;;;;;;2.04;100.00;142770.16;1700525;84;21668;-58
2022/02/17 01:21:57;;;;;;;75.55;41.35;;;;;;;2.08;100.00;142781.33;1700590;83;21020;-59
2022/02/17 01:24:24;;;;;;;82.50;42.65;;;;;;;2.12;100.00;142791.31;1700553;84;21064;-60
2022/02/17 01:26:51;;;;;;;77.62;40.65;;;;;;;2.17;100.00;142802.53;1704401;83;21067;-58
2022/02/17 01:29:19;;;;;;;71.53;39.70;;;;;;;2.16;100.00;142801.28;1715727;82;21074;-60
2022/02/17 01:31:46;;;;;;;86.63;42.55;;;;;;;2.14;100.00;142795.06;1705863;84;21012;-59
2022/02/17 01:34:15;;;;;;;75.10;39.83;;;;;;;2.09;100.00;142783.84;1715410;84;21075;-57
2022/02/17 01:36:46;;;;;;;78.62;42.60;;;;;;;2.04;100.00;142771.39;1700718;84;21613;-59
2022/02/17 01:39:13;;;;;;;75.15;40.40;;;;;;;2.06;100.00;142775.09;1715765;82;21020;-59
2022/02/17 01:41:41;;;;;;;74.17;41.80;;;;;;;2.08;100.00;142780.09;1706214;84;21020;-61
2022/02/17 01:44:11;;;;;;;73.05;40.92;;;;;;;2.02;100.00;142765.17;1686675;85;21023;-57
2022/02/17 01:46:42;;;;;;;77.45;40.73;;;;;;;1.99;100.00;142757.70;1705897;84;21068;-60
2022/02/17 01:49:11;;;;;;;83.92;41.35;;;;;;;1.95;100.00;142750.19;1715902;82;21035;-58
2022/02/17 01:51:39;;;;;;;80.83;43.05;;;;;;;1.94;100.00;142747.72;1687190;84;20995;-58
2022/02/17 01:54:08;;;;;;;78.75;43.42;;;;;;;1.90;100.00;142737.75;1706087;84;21055;-58
2022/02/17 01:56:39;;;;;;;78.72;40.92;;;;;;;1.89;100.00;142735.28;1687176;85;21535;-59
2022/02/17 01:59:10;;;;;;;74.10;41.63;;;;;;;1.85;100.00;142725.30;1706246;84;21056;-59
2022/02/17 02:01:40;;;;;;;82.85;45.03;;;;;;;1.83;100.00;142720.36;1686882;85;21000;-57
2022/02/17 02:04:07;;;;;;;79.20;43.10;;;;;;;1.85;100.00;142725.30;1680204;84;21494;-58
2022/02/17 02:06:35;;;;;;;76.50;43.48;;;;;;;1.85;100.00;142725.30;1715686;84;21036;-59
2022/02/17 02:09:06;;;;;;;76.85;40.60;;;;;;;1.83;100.00;142720.36;1706150;84;21158;-60
2022/02/17 02:11:39;;;;;;;78.25;40.83;;;;;;;1.82;100.00;142716.59;1685893;85;21047;-59
2022/02/17 02:14:15;;;;;;;79.70;43.15;;;;;;;1.79;100.00;142709.14;1706220;84;21181;-59
2022/02/17 02:16:44;;;;;;;76.15;41.25;;;;;;;1.76;100.00;142702.92;1715986;84;20980;-61
2022/02/17 02:19:12;;;;;;;81.45;43.35;;;;;;;1.78;100.00;142707.91;1706415;84;21048;-59
2022/02/17 02:21:40;;;;;;;75.50;39.18;;;;;;;1.78;100.00;142706.63;1715792;82;21553;-58
2022/02/17 02:24:08;;;;;;;74.92;41.83;;;;;;;1.76;100.00;142701.69;1706188;84;21122;-59
2022/02/17 02:26:35;;;;;;;74.72;40.15;;;;;;;1.75;100.00;142700.41;1711249;82;21068;-60
2022/02/17 02:29:02;;;;;;;68.95;39.73;;;;;;;1.78;100.00;142706.63;1700450;84;21052;-60
2022/02/17 02:31:29;;;;;;;78.67;42.30;;;;;;;1.83;100.00;142719.06;1700519;84;21541;-61
2022/02/17 02:33:56;;;;;;;71.72;39.30;;;;;;;1.86;100.00;142727.81;1700391;84;21021;-58
2022/02/17 02:36:23;;;;;;;77.05;41.23;;;;;;;1.89;100.00;142735.28;1700489;84;21040;-58
2022/02/17 02:38:50;;;;;;;76.00;41.75;;;;;;;1.90;100.00;142737.75;1700713;84;21012;-58
2022/02/17 02:41:18;;;;;;;71.12;40.30;;;;;;;1.98;100.00;142755.19;1700432;83;21020;-60
2022/02/17 02:43:50;;;;;;;;;;;;;;;2.05;100.00;142772.62;1703272;83;21052;-59
2022/02/17 02:46:18;;;;;;;90.57;44.85;;;;;;;2.11;100.00;142787.55;1700789;84;20123;-59
2022/02/17 02:48:46;;;;;;;86.32;42.48;;;;;;;2.16;100.00;142800.00;1700683;84;21044;-58
2022/02/17 02:51:14;;;;;;;73.85;40.90;;;;;;;2.17;100.00;142802.53;1700654;84;21080;-58
2022/02/17 02:53:42;;;;;;;74.67;42.15;;;;;;;2.19;100.00;142807.52;1700693;84;21090;-60
2022/02/17 02:56:09;;;;;;;71.12;44.10;;;;;;;2.24;100.00;142819.97;1700655;84;21059;-60
2022/02/17 02:58:37;;;;;;;79.27;43.90;;;;;;;2.29;100.00;142831.14;1700631;83;21048;-58
2022/02/17 03:01:04;;;;;;;77.00;42.25;;;;;;;2.30;100.00;142833.66;1700564;83;21542;-60
2022/02/17 03:03:31;;;;;;;73.22;42.48;;;;;;;2.37;100.00;142851.11;1700629;84;21067;-59
2022/02/17 03:05:58;;;;;;;75.42;41.30;;;;;;;2.42;100.00;142862.28;1700373;84;21017;-60
2022/02/17 03:08:25;;;;;;;79.60;43.17;;;;;;;2.49;100.00;142880.97;1700727;84;21040;-60
2022/02/17 03:10:53;;;;;;;78.15;43.55;;;;;;;2.51;100.00;142885.95;1700387;84;21020;-57
2022/02/17 03:13:29;;;;;;;75.52;40.85;;;;;;;2.54;100.00;142893.42;1690055;84;21614;-58
2022/02/17 03:15:56;;;;;;;72.60;39.78;;;;;;;2.55;100.00;142894.70;1700409;84;21025;-57
2022/02/17 03:18:24;;;;;;;71.47;40.65;;;;;;;2.59;100.00;142905.87;1700479;84;21542;-59
2022/02/17 03:20:51;;;;;;;80.12;43.63;;;;;;;2.61;100.00;142910.88;1700633;84;21573;-60
2022/02/17 03:23:20;;;;;;;68.52;40.00;;;;;;;2.65;100.00;142918.38;1700672;84;21506;-59
2022/02/17 03:25:48;;;;;;;74.17;41.80;;;;;;;2.69;100.00;142928.31;1700616;83;21084;-59
2022/02/17 03:28:17;;;;;;;69.80;38.95;;;;;;;2.71;100.00;142934.55;1686572;84;21023;-59
2022/02/17 03:30:46;;;;;;;73.42;41.33;;;;;;;2.71;100.00;142933.31;1713932;82;21133;-58
2022/02/17 03:33:14;;;;;;;76.12;40.70;;;;;;;2.70;100.00;142932.08;1705862;84;21536;-59
2022/02/17 03:35:41;;;;;;;82.37;44.30;;;;;;;2.75;100.00;142943.30;1715553;82;21101;-58
2022/02/17 03:38:09;;;;;;;84.58;44.45;;;;;;;2.75;100.00;142944.53;1705950;83;21035;-60
2022/02/17 03:40:36;;;;;;;73.42;42.13;;;;;;;2.74;100.00;142940.78;1715612;82;21031;-61
2022/02/17 03:43:03;;;;;;;78.70;43.80;;;;;;;2.72;100.00;142937.06;1705960;84;21036;-61
2022/02/17 03:45:30;;;;;;;73.55;42.60;;;;;;;2.71;100.00;142934.55;1715916;82;21066;-58
2022/02/17 03:48:05;;;;;;;78.35;43.70;;;;;;;2.73;100.00;142939.55;1705083;84;21036;-58
2022/02/17 03:50:33;;;;;;;80.25;44.25;;;;;;;2.74;100.00;142942.02;1715826;82;21071;-57
2022/02/17 03:53:04;;;;;;;;;;;;;;;2.74;100.00;142942.02;1708394;84;21016;-57
2022/02/17 03:55:33;;;;;;;82.30;44.48;;;;;;;2.76;100.00;142947.00;1705906;84;20156;-61
2022/02/17 03:58:00;;;;;;;82.27;44.38;;;;;;;2.79;100.00;142954.47;1715825;82;21493;-60
2022/02/17 04:00:27;;;;;;;76.92;39.53;;;;;;;2.79;100.00;142954.47;1706354;83;21014;-59
2022/02/17 04:02:56;;;;;;;86.25;47.17;;;;;;;2.76;100.00;142945.78;1715621;82;21067;-61
2022/02/17 04:05:25;;;;;;;80.90;46.00;;;;;;;2.74;100.00;142940.78;1706426;84;21522;-57
2022/02/17 04:07:53;;;;;;;84.20;45.03;;;;;;;2.80;100.00;142957.00;1712164;84;21039;-59
2022/02/17 04:10:28;;;;;;;87.33;49.50;;;;;;;2.88;100.00;142974.45;1706202;84;21047;-60
2022/02/17 04:12:56;;;;;;;86.28;47.17;;;;;;;2.89;100.00;142978.16;1686999;84;21533;-57
2022/02/17 04:15:25;;;;;;;82.95;45.12;;;;;;;2.89;100.00;142978.16;1706167;84;21020;-59
2022/02/17 04:17:52;;;;;;;85.15;45.88;;;;;;;2.91;100.00;142981.92;1715740;82;21536;-60
2022/02/17 04:20:24;;;;;;;89.72;47.35;;;;;;;2.91;100.00;142983.16;1671669;84;21081;-60
2022/02/17 04:23:08;;;;;;;87.70;47.35;;;;;;;2.90;100.00;142980.69;1686888;84;21039;-57
2022/02/17 04:25:39;;;;;;;89.22;46.98;;;;;;;2.94;100.00;142989.38;1705185;83;21056;-58
2022/02/17 04:28:17;;;;;;;90.83;44.67;;;;;;;3.00;100.00;143004.31;1674373;85;21051;-59
2022/02/17 04:30:44;;;;;;;86.72;45.83;;;;;;;3.01;100.00;143006.84;1692827;85;21574;-58
2022/02/17 04:33:11;;;;;;;85.30;45.17;;;;;;;2.94;100.00;142989.38;1687633;84;21538;-58
2022/02/17 04:35:43;;;;;;;79.55;43.48;;;;;;;2.89;100.00;142976.92;1705043;83;21060;-60
2022/02/17 04:38:11;;;;;;;80.62;43.85;;;;;;;2.87;100.00;142973.17;1700395;83;21085;-60
2022/02/17 04:43:32;;;;;;;88.67;45.63;;;;;;;2.88;100.00;142975.69;1700452;84;21049;-58
2022/02/17 04:45:59;;;;;;;86.55;46.95;;;;;;;2.81;100.00;142959.47;1700568;83;21036;-57
2022/02/17 04:48:27;;;;;;;87.22;47.85;;;;;;;2.85;100.00;142966.94;1700572;84;21036;-59
2022/02/17 04:50:55;;;;;;;84.05;46.33;;;;;;;2.85;100.00;142968.22;1700572;84;21060;-58
2022/02/17 04:53:24;;;;;;;83.58;46.98;;;;;;;2.85;100.00;142966.94;1700592;84;21008;-58
2022/02/17 04:55:52;;;;;;;83.70;46.95;;;;;;;2.86;100.00;142969.45;1700451;83;21024;-60
2022/02/17 04:58:19;;;;;;;83.33;46.65;;;;;;;2.79;100.00;142954.47;1700661;84;21574;-57
2022/02/17 05:00:48;;;;;;;85.28;44.90;;;;;;;2.79;100.00;142954.47;1700349;84;21040;-59
2022/02/17 05:03:35;;;;;;;89.65;47.73;;;;;;;2.83;100.00;142964.47;1698118;84;21538;-60
2022/02/17 05:06:06;;;;;;;87.00;47.35;;;;;;;2.91;100.00;142981.92;1697441;84;21503;-61
2022/02/17 05:08:34;;;;;;;84.15;42.25;;;;;;;2.95;100.00;142991.86;1700370;83;21032;-60
2022/02/17 05:11:02;;;;;;;82.17;44.23;;;;;;;2.96;100.00;142994.38;1700298;84;21021;-59
2022/02/17 05:13:29;;;;;;;82.92;44.38;;;;;;;2.97;100.00;142998.09;1700329;83;21071;-59
2022/02/17 05:15:56;;;;;;;77.25;41.55;;;;;;;2.98;100.00;143000.61;1700362;84;21044;-60
2022/02/17 05:18:23;;;;;;;84.58;47.08;;;;;;;3.03;100.00;143011.83;1700422;84;21534;-60
2022/02/17 05:20:50;;;;;;;86.17;46.42;;;;;;;3.00;100.00;143004.31;1700396;84;21016;-59
2022/02/17 05:23:24;;;;;;;85.62;44.38;;;;;;;3.03;100.00;143013.06;1694364;84;21028;-61
2022/02/17 05:26:02;;;;;;;84.67;45.67;;;;;;;3.06;100.00;143018.06;1696188;83;21550;-60
2022/02/17 05:28:31;;;;;;;80.07;45.35;;;;;;;3.01;100.00;143006.84;1716987;83;21105;-58
2022/02/17 05:31:18;;;;;;;84.72;45.50;;;;;;;2.97;100.00;142996.84;1726112;82;20995;-59
2022/02/17 05:33:52;;;;;;;83.78;45.17;;;;;;;2.93;100.00;142988.16;1697057;84;21090;-60
2022/02/17 05:36:41;;;;;;;77.70;44.13;;;;;;;2.86;100.00;142969.45;1696660;84;21079;-60
2022/02/17 05:39:11;;;;;;;88.97;45.78;;;;;;;2.87;100.00;142971.94;1659517;83;21457;-60
2022/02/17 05:41:52;;;;;;;84.35;46.68;;;;;;;2.91;100.00;142981.92;1726332;83;20995;-59
2022/02/17 05:44:19;;;;;;;85.25;46.02;;;;;;;2.92;100.00;142985.62;1726121;82;21043;-59
2022/02/17 05:46:46;;;;;;;83.37;45.95;;;;;;;2.93;100.00;142986.91;1726372;82;21018;-60
2022/02/17 05:49:13;;;;;;;83.12;45.25;;;;;;;2.92;100.00;142984.39;1726083;82;21051;-59
2022/02/17 05:51:40;;;;;;;81.53;45.35;;;;;;;2.92;100.00;142985.62;1726376;83;21565;-59
2022/02/17 05:54:07;;;;;;;86.97;45.20;;;;;;;2.90;100.00;142979.41;1726336;82;21067;-59
2022/02/17 05:56:35;;;;;;;84.03;46.77;;;;;;;2.94;100.00;142989.38;1726094;82;21035;-60
2022/02/17 05:59:03;;;;;;;82.25;46.33;;;;;;;2.97;100.00;142996.84;1697205;83;22043;-59
2022/02/17 06:01:30;;;;;;;85.57;46.58;;;;;;;3.01;100.00;143006.84;1697339;83;21091;-58
2022/02/17 06:03:58;;;;;;;85.12;45.48;;;;;;;3.02;100.00;143010.55;1695566;84;21047;-60
2022/02/17 06:06:24;;;;;;;83.92;45.70;;;;;;;2.98;100.00;142999.38;1726343;82;21521;-58
2022/02/17 06:08:51;;;;;;;86.32;48.40;;;;;;;3.01;100.00;143006.84;1726059;82;21063;-58
2022/02/17 06:11:19;;;;;;;86.67;47.25;;;;;;;3.00;100.00;143004.31;1726249;82;21015;-58
2022/02/17 06:13:46;;;;;;;88.55;49.35;;;;;;;3.01;100.00;143008.08;1726249;82;21070;-61
2022/02/17 06:16:15;;;;;;;83.80;44.38;;;;;;;2.96;100.00;142994.38;1726093;82;21581;-58
2022/02/17 06:18:42;;;;;;;90.53;46.70;;;;;;;2.94;100.00;142989.38;1726114;82;21038;-60
2022/02/17 06:21:08;;;;;;;89.37;47.27;;;;;;;2.94;100.00;142990.63;1726270;82;20987;-61
2022/02/17 06:23:36;;;;;;;85.38;45.65;;;;;;;2.94;100.00;142990.63;1725971;82;21062;-59
2022/02/17 06:26:03;;;;;;;91.50;46.23;;;;;;;2.98;100.00;142999.38;1726118;82;21027;-58
2022/02/17 06:28:29;;;;;;;93.12;47.15;;;;;;;3.03;100.00;143011.83;1710152;82;21095;-58
2022/02/17 06:30:56;;;;;;;80.72;44.33;;;;;;;3.02;100.00;143010.55;1705352;83;21016;-58
2022/02/17 06:33:23;;;;;;;91.35;46.58;;;;;;;3.04;100.00;143014.31;1700508;84;21032;-60
2022/02/17 06:35:50;;;;;;;90.83;47.67;;;;;;;3.04;100.00;143015.55;1700450;83;21044;-61
2022/02/17 06:38:16;;;;;;;94.17;48.05;;;;;;;3.02;100.00;143009.31;1700235;83;21012;-60
2022/02/17 06:40:44;;;;;;;91.92;45.78;;;;;;;2.95;100.00;142991.86;1700566;84;21047;-59
2022/02/17 06:43:13;;;;;;;86.05;45.60;;;;;;;2.94;100.00;142989.38;1700352;84;21157;-60
2022/02/17 06:45:43;;;;;;;80.77;41.50;;;;;;;3.01;100.00;143006.84;1700673;84;21044;-58
2022/02/17 06:48:10;;;;;;;85.42;45.95;;;;;;;3.09;100.00;143026.78;1700634;84;21092;-61
2022/02/17 06:50:37;;;;;;;98.62;49.18;;;;;;;3.16;100.00;143044.22;1700663;84;21012;-58
2022/02/17 06:53:07;;;;;;;84.62;46.68;;;;;;;3.21;100.00;143056.69;1700645;84;21568;-59
2022/02/17 06:55:35;;;;;;;80.35;43.85;;;;;;;3.27;100.00;143070.39;1700753;84;21494;-60
2022/02/17 06:58:02;;;;;;;81.92;41.45;;;;;;;3.31;100.00;143079.09;1700420;84;21067;-59
2022/02/17 07:00:29;;;;;;;80.10;43.28;;;;;;;3.27;100.00;143070.39;1700419;84;21001;-60
2022/02/17 07:02:56;;;;;;;87.22;47.13;;;;;;;3.33;100.00;143084.09;1700393;84;21029;-59
2022/02/17 07:05:26;;;;;;;80.40;43.45;;;;;;;3.44;100.00;143111.55;1700719;84;21024;-61
2022/02/17 07:07:53;;;;;;;88.70;45.95;;;;;;;3.47;100.00;143120.27;1700637;84;21032;-60
2022/02/17 07:10:54;;;;;;;82.12;45.23;;;;;;;3.62;100.00;143156.44;1700679;83;21033;-58
2022/02/17 07:12:48;;;;;;;88.62;44.90;;;;;;;3.81;100.00;143201.31;1696306;84;21040;-60
2022/02/17 07:15:17;;;;;;;82.05;45.60;;;;;;;3.94;100.00;143233.72;1700476;84;21582;-58
2022/02/17 07:17:43;;;;;;;84.60;46.45;;;;;;;4.12;100.00;143277.39;1700638;84;21099;-57
2022/02/17 07:20:11;;;;;;;79.90;44.53;;;;;;;4.37;100.00;143338.53;1700383;84;21048;-59
2022/02/17 07:22:38;;;;;;;85.20;45.63;;;;;;;4.66;100.00;143408.44;1700401;83;21185;-58
2022/02/17 07:25:06;;;;;;;73.78;43.25;;;;;;;4.78;100.00;143439.64;1700620;84;21005;-60
2022/02/17 07:27:33;;;;;;;78.57;41.95;;;;;;;4.99;100.00;143490.81;1700651;83;21008;-59
2022/02/17 07:30:00;;;;;;;75.20;40.78;;;;;;;5.85;98.91;143699.34;1700765;84;21534;-58
2022/02/17 07:32:26;;;;;;;70.40;40.17;;;;;;;6.48;93.19;143854.36;1700781;83;21056;-60
2022/02/17 07:34:53;;;;;;;74.40;42.03;;;;;;;6.47;90.80;143850.64;1700765;83;21545;-60
2022/02/17 07:37:20;;;;;;;76.47;42.33;;;;;;;6.79;88.83;143928.13;1700456;84;21028;-58
2022/02/17 07:39:48;;;;;;;70.15;40.05;;;;;;;7.13;87.78;144013.19;1700363;84;21040;-61
2022/02/17 07:42:17;;;;;;;69.82;40.63;;;;;;;7.35;85.70;144066.98;1700679;83;21115;-60
2022/02/17 07:44:45;;;;;;;68.22;40.28;;;;;;;7.94;85.39;144209.63;1700353;84;21076;-61
2022/02/17 07:47:12;;;;;;;65.42;38.17;;;;;;;8.69;82.24;144393.69;1700598;84;21051;-58
2022/02/17 07:49:39;;;;;;;65.65;38.42;;;;;;;8.71;79.23;144398.70;1700372;84;21028;-59
2022/02/17 07:52:06;;;;;;;68.37;40.38;;;;;;;8.30;79.42;144298.48;1700595;83;21048;-59
2022/02/17 07:54:34;;;;;;;70.95;41.90;;;;;;;8.28;80.79;144293.47;1700430;84;21545;-60
2022/02/17 07:57:03;;;;;;;68.35;39.85;;;;;;;8.48;79.13;144343.59;1700536;84;21041;-61
2022/02/17 07:59:30;;;;;;;69.00;40.58;;;;;;;8.45;78.98;144336.09;1700396;83;21076;-57
2022/02/17 08:01:58;;;;;;;64.47;41.10;;;;;;;8.40;78.87;144322.33;1700696;84;21071;-61
2022/02/17 08:04:25;;;;;;;69.37;40.40;;;;;;;8.32;79.38;144302.22;1700398;84;21056;-59
2022/02/17 08:06:51;;;;;;;69.15;41.35;;;;;;;8.44;78.43;144333.56;1700648;84;21031;-61
2022/02/17 08:09:19;;;;;;;68.25;40.38;;;;;;;8.27;78.62;144290.98;1700367;84;21040;-60
2022/02/17 08:11:47;;;;;;;69.50;42.43;;;;;;;8.00;79.44;144225.88;1700362;84;20996;-59
2022/02/17 08:14:14;;;;;;;64.85;39.78;;;;;;;7.81;80.47;144178.30;1700427;83;21471;-58
2022/02/17 08:16:43;;;;;;;69.37;42.03;;;;;;;7.53;81.08;144109.47;1700427;83;21084;-60
2022/02/17 08:19:11;;;;;;;67.32;39.60;;;;;;;7.11;82.89;144008.17;1700385;84;21060;-60
2022/02/17 08:21:39;;;;;;;60.12;38.25;;;;;;;6.86;84.47;143946.88;1700424;84;21104;-58
2022/02/17 08:24:06;;;;;;;72.97;40.43;;;;;;;7.05;84.85;143993.19;1700604;84;21525;-58
2022/02/17 08:26:35;;;;;;;70.97;40.28;;;;;;;7.12;84.23;144010.70;1700411;84;21177;-59
2022/02/17 08:29:02;;;;;;;66.60;40.17;;;;;;;7.21;83.82;144030.70;1704507;83;21557;-59
2022/02/17 08:31:29;;;;;;;62.83;39.40;;;;;;;7.41;83.62;144080.73;1715667;82;21008;-61
2022/02/17 08:33:56;;;;;;;60.58;36.60;;;;;;;7.68;82.63;144147.02;1705855;84;21048;-59
2022/02/17 08:36:24;;;;;;;64.87;38.40;;;;;;;7.91;81.08;144203.38;1687056;84;21515;-59
2022/02/17 08:38:51;;;;;;;64.82;39.75;;;;;;;8.26;80.27;144289.69;1705920;83;21537;-61
2022/02/17 08:41:18;;;;;;;64.75;36.28;;;;;;;8.51;78.17;144348.61;1715811;82;21038;-59
2022/02/17 08:43:46;;;;;;;60.30;36.85;;;;;;;8.71;76.54;144398.70;1705945;84;21059;-59
2022/02/17 08:46:14;;;;;;;58.87;33.88;;;;;;;8.78;76.70;144415.00;1715828;82;21488;-61
2022/02/17 08:48:41;;;;;;;58.48;35.83;;;;;;;8.76;75.50;144411.22;1706130;83;21075;-59
2022/02/17 08:51:07;;;;;;;68.15;38.53;;;;;;;8.70;76.44;144396.17;1715972;82;21066;-59
2022/02/17 08:53:35;;;;;;;68.37;41.33;;;;;;;8.82;76.90;144426.23;1705932;84;21091;-58
2022/02/17 08:56:02;;;;;;;64.87;37.33;;;;;;;8.93;75.77;144451.28;1687207;84;21059;-60
2022/02/17 08:58:29;;;;;;;65.30;37.13;;;;;;;8.63;75.85;144378.67;1705872;84;21064;-58
2022/02/17 09:00:58;;;;;;;61.02;37.17;;;;;;;8.29;77.49;144294.72;1715524;82;21032;-60
2022/02/17 09:03:25;;;;;;;61.45;38.35;;;;;;;8.08;78.20;144243.41;1705994;84;21068;-58
2022/02/17 09:05:51;;;;;;;59.85;35.80;;;;;;;7.74;79.69;144162.06;1715651;82;21087;-60
2022/02/17 09:08:21;;;;;;;62.85;36.03;;;;;;;7.61;80.44;144129.53;1705920;84;21067;-61
2022/02/17 09:10:48;;;;;;;53.92;34.03;;;;;;;7.30;81.64;144053.19;1715844;83;21043;-60
2022/02/17 09:13:15;;;;;;;55.92;35.92;;;;;;;7.10;82.41;144005.69;1705945;84;21027;-60
2022/02/17 09:15:43;;;;;;;58.45;35.80;;;;;;;6.91;83.55;143958.16;1715814;82;21062;-57
2022/02/17 09:18:12;;;;;;;55.88;34.10;;;;;;;6.89;84.11;143954.38;1705890;84;21092;-58
2022/02/17 09:20:40;;;;;;;59.88;35.75;;;;;;;6.92;84.21;143960.63;1715754;83;21050;-59
2022/02/17 09:23:07;;;;;;;61.45;36.63;;;;;;;6.78;84.89;143925.66;1705848;84;21079;-60
2022/02/17 09:25:36;;;;;;;62.53;37.13;;;;;;;6.76;84.95;143921.88;1715813;82;21039;-58
2022/02/17 09:28:05;;;;;;;57.27;34.88;;;;;;;6.80;85.03;143930.66;1709242;83;21046;-60
2022/02/17 09:30:32;;;;;;;60.35;35.43;;;;;;;6.81;85.06;143934.38;1726392;82;21077;-57
2022/02/17 09:32:59;;;;;;;56.45;30.60;;;;;;;6.76;85.01;143920.64;1697059;83;21184;-58
2022/02/17 09:35:25;;;;;;;53.23;32.75;;;;;;;6.70;84.47;143908.12;1697392;84;21469;-60
2022/02/17 09:37:52;;;;;;;57.62;33.45;;;;;;;6.73;84.56;143915.63;1695720;83;21106;-61
2022/02/17 09:40:20;;;;;;;58.42;33.83;;;;;;;6.79;84.45;143929.37;1726297;82;21001;-59
2022/02/17 09:42:47;;;;;;;55.23;34.27;;;;;;;6.84;84.33;143941.88;1726299;82;21512;-59
2022/02/17 09:45:15;;;;;;;57.08;32.95;;;;;;;6.93;83.94;143964.41;1726155;82;21572;-57
2022/02/17 09:47:44;;;;;;;56.85;32.88;;;;;;;7.01;83.42;143981.91;1726378;83;21019;-60
2022/02/17 09:50:14;;;;;;;53.08;32.73;;;;;;;7.01;83.59;143981.91;1726333;82;21019;-61
2022/02/17 09:52:42;;;;;;;53.35;31.77;;;;;;;7.05;83.61;143993.19;1726366;82;21014;-58
2022/02/17 09:55:14;;;;;;;52.90;30.95;;;;;;;7.05;83.67;143993.19;1697404;84;21019;-60
2022/02/17 09:57:43;;;;;;;57.70;32.70;;;;;;;7.01;83.84;143983.16;1697413;83;21051;-59
2022/02/17 10:00:13;;;;;;;59.77;34.78;;;;;;;7.03;84.20;143988.17;1695822;83;21518;-58
2022/02/17 10:02:42;;;;;;;55.40;34.23;;;;;;;7.05;84.25;143991.94;1726600;82;21458;-60
2022/02/17 10:05:11;;;;;;;50.23;31.50;;;;;;;7.05;84.28;143993.19;1726063;82;21043;-58
2022/02/17 10:07:42;;;;;;;56.15;32.83;;;;;;;7.11;84.11;144006.92;1726310;82;21054;-59
2022/02/17 10:10:13;;;;;;;;;;;;;;;7.04;84.04;143990.66;1728962;82;21155;-58
2022/02/17 10:12:57;;;;;;;53.98;31.62;;;;;;;7.01;84.54;143983.16;1697149;83;20103;-57
2022/02/17 10:15:35;;;;;;;51.00;29.77;;;;;;;7.10;84.59;144005.69;1697151;83;21011;-59
2022/02/17 10:18:12;;;;;;;53.55;32.90;;;;;;;7.22;84.30;144033.19;1726111;82;21063;-61
2022/02/17 10:21:03;;;;;;;53.48;31.35;;;;;;;7.27;83.90;144045.69;1697460;83;21505;-59
2022/02/17 10:23:39;;;;;;;48.23;29.52;;;;;;;7.31;83.48;144056.95;1697447;83;21504;-57
2022/02/17 10:26:11;;;;;;;53.23;31.52;;;;;;;7.36;83.22;144068.22;1697344;83;21174;-60
2022/02/17 10:28:57;;;;;;;49.60;30.72;;;;;;;7.45;83.10;144089.47;1690801;83;21095;-57
2022/02/17 10:31:35;;;;;;;43.90;28.40;;;;;;;7.54;82.39;144112.00;1705273;83;21040;-59
2022/02/17 10:34:04;;;;;;;44.45;26.80;;;;;;;7.60;81.69;144127.00;1700679;83;21008;-59
2022/02/17 10:36:47;;;;;;;39.35;26.25;;;;;;;7.70;81.01;144152.03;1700455;83;21052;-59
2022/02/17 10:39:19;;;;;;;40.40;26.05;;;;;;;7.78;80.56;144172.03;1699712;84;21088;-59
2022/02/17 10:42:13;;;;;;;46.45;27.48;;;;;;;7.86;79.45;144190.86;1700580;84;21004;-60
2022/02/17 10:44:40;;;;;;;44.93;26.57;;;;;;;7.88;79.29;144195.83;1699839;83;21020;-60
2022/02/17 10:47:20;;;;;;;39.37;23.57;;;;;;;7.89;79.19;144198.36;1700928;83;21068;-59
2022/02/17 10:49:53;;;;;;;44.88;24.27;;;;;;;7.88;78.31;144194.58;1700418;84;21635;-61
2022/02/17 10:52:36;;;;;;;39.10;24.32;;;;;;;7.87;78.50;144192.09;1700666;83;21036;-60
2022/02/17 10:55:20;;;;;;;41.55;23.70;;;;;;;7.86;78.80;144190.86;1700628;84;21087;-59
2022/02/17 10:57:48;;;;;;;42.15;24.50;;;;;;;7.87;78.73;144192.09;1700749;84;21562;-57
2022/02/17 11:00:23;;;;;;;34.98;23.32;;;;;;;7.88;78.56;144194.58;1700572;84;21052;-57
2022/02/17 11:02:51;;;;;;;38.95;23.15;;;;;;;7.88;78.91;144195.83;1700701;84;21036;-58
2022/02/17 11:05:19;;;;;;;34.65;21.00;;;;;;;7.83;78.72;144184.55;1700782;84;21067;-58
2022/02/17 11:07:47;;;;;;;35.23;20.92;;;;;;;7.76;78.84;144165.78;1700619;84;21530;-60
2022/02/17 11:10:14;;;;;;;33.95;21.75;;;;;;;7.70;79.24;144150.78;1700455;84;21013;-58
2022/02/17 11:12:42;;;;;;;32.58;21.27;;;;;;;7.67;79.64;144144.53;1700774;84;21529;-60
2022/02/17 11:15:10;;;;;;;34.73;22.00;;;;;;;7.64;80.25;144135.78;1700649;84;21028;-58
2022/02/17 11:17:40;;;;;;;30.95;20.57;;;;;;;7.60;80.79;144128.25;1700406;84;21005;-60
2022/02/17 11:20:17;;;;;;;32.78;20.80;;;;;;;7.55;81.15;144114.50;1700629;83;21570;-59
2022/02/17 11:22:46;;;;;;;31.45;20.43;;;;;;;7.50;81.82;144101.98;1700614;84;21498;-60